sensor_id;sensor_type;location;lat;lon;timestamp;pressure;altitude;pressure_sealevel;temperature;humidity
75585;BME280;64162;53.508;10.476;2023-02-02T00:01:47;100512.47;;;6.40;79.31
75585;BME280;64162;53.508;10.476;2023-02-02T00:04:20;100524.22;;;6.47;79.38
75585;BME280;64162;53.508;10.476;2023-02-02T00:06:47;100527.31;;;6.66;78.79
75585;BME280;64162;53.508;10.476;2023-02-02T00:09:15;100528.34;;;6.63;78.52
75585;BME280;64162;53.508;10.476;2023-02-02T00:11:42;100517.44;;;6.57;78.50
75585;BME280;64162;53.508;10.476;2023-02-02T00:14:10;100511.81;;;6.63;78.64
75585;BME280;64162;53.508;10.476;2023-02-02T00:16:50;100511.78;;;6.50;78.49
75585;BME280;64162;53.508;10.476;2023-02-02T00:21:47;100502.28;;;6.62;78.33
75585;BME280;64162;53.508;10.476;2023-02-02T00:24:15;100513.63;;;6.75;77.64
75585;BME280;64162;53.508;10.476;2023-02-02T00:26:45;100516.88;;;6.79;77.85
75585;BME280;64162;53.508;10.476;2023-02-02T00:29:18;100518.19;;;6.59;78.56
75585;BME280;64162;53.508;10.476;2023-02-02T00:31:46;100533.47;;;6.65;77.90
75585;BME280;64162;53.508;10.476;2023-02-02T00:34:13;100527.41;;;6.65;78.20
75585;BME280;64162;53.508;10.476;2023-02-02T00:36:40;100526.16;;;6.70;78.03
75585;BME280;64162;53.508;10.476;2023-02-02T00:39:13;100524.50;;;6.94;77.50
75585;BME280;64162;53.508;10.476;2023-02-02T00:41:39;100540.94;;;6.71;77.89
75585;BME280;64162;53.508;10.476;2023-02-02T00:44:06;100533.03;;;6.58;78.21
75585;BME280;64162;53.508;10.476;2023-02-02T00:46:51;100536.94;;;6.66;78.14
75585;BME280;64162;53.508;10.476;2023-02-02T00:49:18;100562.88;;;6.83;77.50
75585;BME280;64162;53.508;10.476;2023-02-02T00:51:44;100553.50;;;6.66;77.77
75585;BME280;64162;53.508;10.476;2023-02-02T00:54:12;100540.00;;;6.72;77.69
75585;BME280;64162;53.508;10.476;2023-02-02T00:56:42;100551.00;;;6.77;77.23
75585;BME280;64162;53.508;10.476;2023-02-02T00:59:10;100557.81;;;6.80;77.24
75585;BME280;64162;53.508;10.476;2023-02-02T01:01:36;100556.28;;;6.90;76.90
75585;BME280;64162;53.508;10.476;2023-02-02T01:04:03;100567.38;;;6.93;76.90
75585;BME280;64162;53.508;10.476;2023-02-02T01:06:30;100571.75;;;6.80;76.48
75585;BME280;64162;53.508;10.476;2023-02-02T01:08:56;100576.69;;;6.85;76.91
75585;BME280;64162;53.508;10.476;2023-02-02T01:11:23;100577.09;;;6.79;76.74
75585;BME280;64162;53.508;10.476;2023-02-02T01:13:52;100582.47;;;7.03;76.58
75585;BME280;64162;53.508;10.476;2023-02-02T01:16:19;100587.38;;;6.82;76.99
75585;BME280;64162;53.508;10.476;2023-02-02T01:18:48;100588.22;;;6.95;76.95
75585;BME280;64162;53.508;10.476;2023-02-02T01:21:16;100587.06;;;6.86;76.91
75585;BME280;64162;53.508;10.476;2023-02-02T01:23:43;100604.16;;;7.05;76.47
75585;BME280;64162;53.508;10.476;2023-02-02T01:26:11;100607.22;;;6.72;77.54
75585;BME280;64162;53.508;10.476;2023-02-02T01:28:38;100606.59;;;7.08;76.69
75585;BME280;64162;53.508;10.476;2023-02-02T01:31:16;100618.03;;;7.19;77.23
75585;BME280;64162;53.508;10.476;2023-02-02T01:33:44;100609.78;;;6.86;77.00
75585;BME280;64162;53.508;10.476;2023-02-02T01:36:17;100615.47;;;7.05;77.11
75585;BME280;64162;53.508;10.476;2023-02-02T01:38:44;100626.81;;;7.06;77.01
75585;BME280;64162;53.508;10.476;2023-02-02T01:41:13;100648.25;;;6.85;77.16
75585;BME280;64162;53.508;10.476;2023-02-02T01:48:43;100649.81;;;6.88;76.73
75585;BME280;64162;53.508;10.476;2023-02-02T01:51:15;100656.09;;;6.85;77.04
75585;BME280;64162;53.508;10.476;2023-02-02T01:53:44;100664.78;;;6.86;76.79
75585;BME280;64162;53.508;10.476;2023-02-02T01:56:15;100675.53;;;7.08;76.29
75585;BME280;64162;53.508;10.476;2023-02-02T01:58:43;100675.91;;;6.89;76.21
75585;BME280;64162;53.508;10.476;2023-02-02T02:01:10;100666.56;;;6.85;76.46
75585;BME280;64162;53.508;10.476;2023-02-02T02:03:39;100669.72;;;6.90;76.45
75585;BME280;64162;53.508;10.476;2023-02-02T02:06:08;100672.25;;;6.51;77.20
75585;BME280;64162;53.508;10.476;2023-02-02T02:08:52;100692.06;;;6.55;77.63
75585;BME280;64162;53.508;10.476;2023-02-02T02:11:21;100680.41;;;6.46;78.90
75585;BME280;64162;53.508;10.476;2023-02-02T02:13:49;100699.41;;;6.21;79.57
75585;BME280;64162;53.508;10.476;2023-02-02T02:16:58;100711.34;;;6.40;78.94
75585;BME280;64162;53.508;10.476;2023-02-02T02:34:39;100705.00;;;6.01;78.69
75585;BME280;64162;53.508;10.476;2023-02-02T02:37:26;100719.75;;;6.02;78.68
75585;BME280;64162;53.508;10.476;2023-02-02T02:40:10;100721.00;;;5.81;78.71
75585;BME280;64162;53.508;10.476;2023-02-02T02:42:44;100726.22;;;5.81;77.88
75585;BME280;64162;53.508;10.476;2023-02-02T02:45:12;100724.88;;;5.89;78.79
75585;BME280;64162;53.508;10.476;2023-02-02T02:47:40;100732.09;;;6.00;78.88
75585;BME280;64162;53.508;10.476;2023-02-02T02:50:07;100730.69;;;5.94;79.14
75585;BME280;64162;53.508;10.476;2023-02-02T02:52:35;100736.09;;;6.06;78.79
75585;BME280;64162;53.508;10.476;2023-02-02T02:55:02;100737.88;;;5.91;79.04
75585;BME280;64162;53.508;10.476;2023-02-02T02:57:58;100746.19;;;5.97;79.35
75585;BME280;64162;53.508;10.476;2023-02-02T03:00:38;100752.34;;;5.96;79.57
75585;BME280;64162;53.508;10.476;2023-02-02T03:05:55;100754.59;;;6.03;79.42
75585;BME280;64162;53.508;10.476;2023-02-02T03:08:32;100756.75;;;6.10;79.31
75585;BME280;64162;53.508;10.476;2023-02-02T03:11:03;100758.75;;;6.21;79.31
75585;BME280;64162;53.508;10.476;2023-02-02T03:13:32;100762.28;;;6.20;79.98
75585;BME280;64162;53.508;10.476;2023-02-02T03:15:58;100760.22;;;6.25;78.99
75585;BME280;64162;53.508;10.476;2023-02-02T03:18:28;100758.53;;;6.38;78.75
75585;BME280;64162;53.508;10.476;2023-02-02T03:20:55;100776.50;;;6.30;78.83
75585;BME280;64162;53.508;10.476;2023-02-02T03:23:22;100765.00;;;6.33;78.64
75585;BME280;64162;53.508;10.476;2023-02-02T03:25:49;100771.53;;;6.25;79.00
75585;BME280;64162;53.508;10.476;2023-02-02T03:28:16;100777.63;;;6.26;79.26
75585;BME280;64162;53.508;10.476;2023-02-02T03:30:44;100786.19;;;6.42;78.19
75585;BME280;64162;53.508;10.476;2023-02-02T03:33:11;100789.19;;;6.22;79.12
75585;BME280;64162;53.508;10.476;2023-02-02T03:35:39;100793.16;;;5.99;79.33
75585;BME280;64162;53.508;10.476;2023-02-02T03:38:05;100799.38;;;6.12;79.39
75585;BME280;64162;53.508;10.476;2023-02-02T03:40:32;100791.31;;;6.01;79.67
75585;BME280;64162;53.508;10.476;2023-02-02T03:42:58;100784.47;;;5.99;79.32
75585;BME280;64162;53.508;10.476;2023-02-02T03:45:28;100800.03;;;6.16;78.33
75585;BME280;64162;53.508;10.476;2023-02-02T03:47:55;100805.22;;;6.02;78.44
75585;BME280;64162;53.508;10.476;2023-02-02T03:50:21;100810.81;;;5.95;78.68
75585;BME280;64162;53.508;10.476;2023-02-02T03:52:50;100809.53;;;6.03;78.52
75585;BME280;64162;53.508;10.476;2023-02-02T03:55:16;100815.28;;;6.23;77.97
75585;BME280;64162;53.508;10.476;2023-02-02T03:57:43;100830.78;;;6.26;77.79
75585;BME280;64162;53.508;10.476;2023-02-02T04:00:10;100827.13;;;6.15;77.81
75585;BME280;64162;53.508;10.476;2023-02-02T04:02:39;100837.09;;;6.08;77.88
75585;BME280;64162;53.508;10.476;2023-02-02T04:05:06;100845.59;;;6.12;77.91
75585;BME280;64162;53.508;10.476;2023-02-02T04:07:32;100837.31;;;6.19;77.39
75585;BME280;64162;53.508;10.476;2023-02-02T04:09:59;100834.59;;;6.21;77.66
75585;BME280;64162;53.508;10.476;2023-02-02T04:12:25;100866.97;;;6.34;77.59
75585;BME280;64162;53.508;10.476;2023-02-02T04:14:52;100857.44;;;6.33;77.44
75585;BME280;64162;53.508;10.476;2023-02-02T04:17:18;100856.19;;;6.39;77.66
75585;BME280;64162;53.508;10.476;2023-02-02T04:19:45;100874.34;;;6.42;77.31
75585;BME280;64162;53.508;10.476;2023-02-02T04:22:11;100894.59;;;6.38;77.72
75585;BME280;64162;53.508;10.476;2023-02-02T04:24:38;100873.22;;;5.86;78.38
75585;BME280;64162;53.508;10.476;2023-02-02T04:27:04;100888.41;;;5.95;79.74
75585;BME280;64162;53.508;10.476;2023-02-02T04:29:31;100887.88;;;5.88;79.91
75585;BME280;64162;53.508;10.476;2023-02-02T04:31:57;100880.41;;;5.98;81.28
75585;BME280;64162;53.508;10.476;2023-02-02T04:34:24;100903.09;;;5.82;82.08
75585;BME280;64162;53.508;10.476;2023-02-02T04:36:50;100879.44;;;6.15;80.35
75585;BME280;64162;53.508;10.476;2023-02-02T04:39:17;100900.13;;;6.04;79.60
75585;BME280;64162;53.508;10.476;2023-02-02T04:41:43;100890.59;;;6.03;78.84
75585;BME280;64162;53.508;10.476;2023-02-02T04:44:13;100896.00;;;6.00;79.36
75585;BME280;64162;53.508;10.476;2023-02-02T04:46:42;100893.13;;;6.04;79.59
75585;BME280;64162;53.508;10.476;2023-02-02T04:49:10;100903.19;;;5.96;79.79
75585;BME280;64162;53.508;10.476;2023-02-02T04:51:38;100902.41;;;5.94;79.56
75585;BME280;64162;53.508;10.476;2023-02-02T04:54:05;100914.91;;;6.05;79.78
75585;BME280;64162;53.508;10.476;2023-02-02T04:56:33;100916.50;;;5.91;80.22
75585;BME280;64162;53.508;10.476;2023-02-02T04:59:00;100906.38;;;5.85;79.61
75585;BME280;64162;53.508;10.476;2023-02-02T05:01:26;100903.75;;;6.01;78.66
75585;BME280;64162;53.508;10.476;2023-02-02T05:03:54;100904.13;;;5.63;78.82
75585;BME280;64162;53.508;10.476;2023-02-02T05:06:21;100905.88;;;5.94;77.90
75585;BME280;64162;53.508;10.476;2023-02-02T05:08:48;100912.97;;;5.77;78.70
75585;BME280;64162;53.508;10.476;2023-02-02T05:11:17;100920.38;;;5.84;78.16
75585;BME280;64162;53.508;10.476;2023-02-02T05:13:49;100922.16;;;5.52;79.79
75585;BME280;64162;53.508;10.476;2023-02-02T05:16:16;100927.06;;;5.58;80.10
75585;BME280;64162;53.508;10.476;2023-02-02T05:18:51;100922.75;;;5.57;79.71
75585;BME280;64162;53.508;10.476;2023-02-02T05:21:18;100925.38;;;5.57;79.96
75585;BME280;64162;53.508;10.476;2023-02-02T05:23:45;100933.44;;;5.84;79.14
75585;BME280;64162;53.508;10.476;2023-02-02T05:26:15;100924.38;;;5.76;79.84
75585;BME280;64162;53.508;10.476;2023-02-02T05:28:43;100925.72;;;5.67;80.35
75585;BME280;64162;53.508;10.476;2023-02-02T05:31:09;100927.41;;;5.68;80.28
75585;BME280;64162;53.508;10.476;2023-02-02T05:33:36;100927.31;;;5.54;80.41
75585;BME280;64162;53.508;10.476;2023-02-02T05:36:03;100918.88;;;5.49;79.72
75585;BME280;64162;53.508;10.476;2023-02-02T05:38:30;100934.72;;;5.46;79.65
75585;BME280;64162;53.508;10.476;2023-02-02T05:40:56;100945.09;;;5.63;78.71
75585;BME280;64162;53.508;10.476;2023-02-02T05:43:25;100944.41;;;5.44;79.00
75585;BME280;64162;53.508;10.476;2023-02-02T05:45:51;100950.13;;;5.35;79.38
75585;BME280;64162;53.508;10.476;2023-02-02T05:48:19;100949.66;;;5.59;79.01
75585;BME280;64162;53.508;10.476;2023-02-02T05:51:02;100950.16;;;5.50;79.09
75585;BME280;64162;53.508;10.476;2023-02-02T05:53:32;100959.88;;;5.64;79.05
75585;BME280;64162;53.508;10.476;2023-02-02T05:55:58;100961.81;;;5.60;79.83
75585;BME280;64162;53.508;10.476;2023-02-02T05:58:25;100960.75;;;5.79;79.26
75585;BME280;64162;53.508;10.476;2023-02-02T06:00:52;100948.63;;;5.46;79.40
75585;BME280;64162;53.508;10.476;2023-02-02T06:03:21;100944.34;;;5.45;79.80
75585;BME280;64162;53.508;10.476;2023-02-02T06:05:48;100974.69;;;5.63;79.44
75585;BME280;64162;53.508;10.476;2023-02-02T06:08:14;100965.31;;;5.44;80.37
75585;BME280;64162;53.508;10.476;2023-02-02T06:10:41;100969.72;;;5.59;80.06
75585;BME280;64162;53.508;10.476;2023-02-02T06:13:08;100968.50;;;5.33;80.66
75585;BME280;64162;53.508;10.476;2023-02-02T06:15:35;100967.44;;;5.53;79.57
75585;BME280;64162;53.508;10.476;2023-02-02T06:18:02;100976.63;;;5.60;79.41
75585;BME280;64162;53.508;10.476;2023-02-02T06:20:30;100976.59;;;5.28;80.25
75585;BME280;64162;53.508;10.476;2023-02-02T06:22:56;100990.13;;;5.52;80.04
75585;BME280;64162;53.508;10.476;2023-02-02T06:25:23;101000.13;;;5.44;79.32
75585;BME280;64162;53.508;10.476;2023-02-02T06:27:54;100991.22;;;5.48;79.41
75585;BME280;64162;53.508;10.476;2023-02-02T06:30:21;101006.91;;;5.64;78.16
75585;BME280;64162;53.508;10.476;2023-02-02T06:32:47;101002.81;;;5.43;78.49
75585;BME280;64162;53.508;10.476;2023-02-02T06:35:14;101008.00;;;5.11;79.63
75585;BME280;64162;53.508;10.476;2023-02-02T06:37:40;101008.25;;;5.22;78.64
75585;BME280;64162;53.508;10.476;2023-02-02T06:40:08;101018.50;;;5.43;77.94
75585;BME280;64162;53.508;10.476;2023-02-02T06:42:35;101026.44;;;5.24;78.30
75585;BME280;64162;53.508;10.476;2023-02-02T06:45:02;101024.59;;;5.10;79.05
75585;BME280;64162;53.508;10.476;2023-02-02T06:47:31;101028.50;;;5.02;79.32
75585;BME280;64162;53.508;10.476;2023-02-02T06:49:58;101029.72;;;4.94;79.08
75585;BME280;64162;53.508;10.476;2023-02-02T06:52:24;101028.44;;;5.03;79.49
75585;BME280;64162;53.508;10.476;2023-02-02T06:54:51;101037.59;;;5.27;78.31
75585;BME280;64162;53.508;10.476;2023-02-02T06:57:17;101039.31;;;5.11;79.17
75585;BME280;64162;53.508;10.476;2023-02-02T06:59:44;101041.31;;;5.06;79.59
75585;BME280;64162;53.508;10.476;2023-02-02T07:02:12;101044.63;;;5.10;78.92
75585;BME280;64162;53.508;10.476;2023-02-02T07:04:39;101045.84;;;5.03;79.33
75585;BME280;64162;53.508;10.476;2023-02-02T07:07:05;101053.31;;;4.93;80.49
75585;BME280;64162;53.508;10.476;2023-02-02T07:09:33;101059.28;;;5.12;79.61
75585;BME280;64162;53.508;10.476;2023-02-02T07:11:59;101059.84;;;5.02;79.99
75585;BME280;64162;53.508;10.476;2023-02-02T07:14:26;101066.94;;;5.32;79.28
75585;BME280;64162;53.508;10.476;2023-02-02T07:16:52;101065.94;;;5.35;78.74
75585;BME280;64162;53.508;10.476;2023-02-02T07:19:19;101068.22;;;5.08;79.82
75585;BME280;64162;53.508;10.476;2023-02-02T07:21:45;101071.84;;;5.21;80.11
75585;BME280;64162;53.508;10.476;2023-02-02T07:24:12;101077.06;;;5.39;79.65
75585;BME280;64162;53.508;10.476;2023-02-02T07:26:38;101089.66;;;5.48;79.63
75585;BME280;64162;53.508;10.476;2023-02-02T07:29:05;101089.78;;;5.62;79.54
75585;BME280;64162;53.508;10.476;2023-02-02T07:31:31;101086.88;;;5.51;79.99
75585;BME280;64162;53.508;10.476;2023-02-02T07:34:01;101095.09;;;5.60;79.17
75585;BME280;64162;53.508;10.476;2023-02-02T07:36:27;101108.84;;;5.64;78.71
75585;BME280;64162;53.508;10.476;2023-02-02T07:38:54;101101.16;;;5.61;78.11
75585;BME280;64162;53.508;10.476;2023-02-02T07:41:23;101106.44;;;5.77;77.89
75585;BME280;64162;53.508;10.476;2023-02-02T07:43:50;101114.44;;;5.74;78.31
75585;BME280;64162;53.508;10.476;2023-02-02T07:46:17;101123.38;;;5.70;79.41
75585;BME280;64162;53.508;10.476;2023-02-02T07:48:44;101125.13;;;6.02;78.41
75585;BME280;64162;53.508;10.476;2023-02-02T07:51:15;101131.94;;;5.89;79.11
75585;BME280;64162;53.508;10.476;2023-02-02T07:53:44;101131.00;;;6.23;78.54
75585;BME280;64162;53.508;10.476;2023-02-02T07:56:19;101136.97;;;6.09;78.91
75585;BME280;64162;53.508;10.476;2023-02-02T07:58:46;101140.13;;;6.32;77.85
75585;BME280;64162;53.508;10.476;2023-02-02T08:01:14;101151.25;;;6.35;77.88
75585;BME280;64162;53.508;10.476;2023-02-02T08:03:42;101158.09;;;6.22;78.60
75585;BME280;64162;53.508;10.476;2023-02-02T08:06:18;101154.88;;;6.48;77.41
75585;BME280;64162;53.508;10.476;2023-02-02T08:08:45;101162.13;;;6.43;76.75
75585;BME280;64162;53.508;10.476;2023-02-02T08:11:14;101166.69;;;6.40;77.08
75585;BME280;64162;53.508;10.476;2023-02-02T08:13:42;101172.53;;;6.29;76.93
75585;BME280;64162;53.508;10.476;2023-02-02T08:16:09;101167.34;;;6.12;78.02
75585;BME280;64162;53.508;10.476;2023-02-02T08:18:36;101169.75;;;6.32;76.80
75585;BME280;64162;53.508;10.476;2023-02-02T08:21:05;101174.06;;;6.33;77.10
75585;BME280;64162;53.508;10.476;2023-02-02T08:23:34;101183.50;;;6.51;76.87
75585;BME280;64162;53.508;10.476;2023-02-02T08:26:12;101184.84;;;6.27;77.39
75585;BME280;64162;53.508;10.476;2023-02-02T08:28:40;101194.06;;;6.50;77.08
75585;BME280;64162;53.508;10.476;2023-02-02T08:31:09;101197.44;;;6.52;77.44
75585;BME280;64162;53.508;10.476;2023-02-02T08:33:37;101193.63;;;6.73;77.21
75585;BME280;64162;53.508;10.476;2023-02-02T08:36:10;101202.25;;;6.91;76.67
75585;BME280;64162;53.508;10.476;2023-02-02T08:38:37;101201.13;;;6.95;76.31
75585;BME280;64162;53.508;10.476;2023-02-02T08:41:05;101200.41;;;6.93;75.93
75585;BME280;64162;53.508;10.476;2023-02-02T08:43:31;101209.09;;;6.78;76.54
75585;BME280;64162;53.508;10.476;2023-02-02T08:45:58;101217.03;;;6.60;76.08
75585;BME280;64162;53.508;10.476;2023-02-02T08:48:30;101214.84;;;6.69;75.75
75585;BME280;64162;53.508;10.476;2023-02-02T08:50:57;101219.22;;;6.68;75.86
75585;BME280;64162;53.508;10.476;2023-02-02T08:53:25;101228.75;;;6.53;76.06
75585;BME280;64162;53.508;10.476;2023-02-02T08:55:59;101227.34;;;6.63;75.57
75585;BME280;64162;53.508;10.476;2023-02-02T08:58:27;101229.94;;;6.32;76.91
75585;BME280;64162;53.508;10.476;2023-02-02T09:00:54;101227.66;;;6.57;76.15
75585;BME280;64162;53.508;10.476;2023-02-02T09:03:20;101231.72;;;6.63;76.47
75585;BME280;64162;53.508;10.476;2023-02-02T09:05:47;101236.63;;;6.53;76.37
75585;BME280;64162;53.508;10.476;2023-02-02T09:08:13;101241.97;;;6.83;75.49
75585;BME280;64162;53.508;10.476;2023-02-02T09:10:40;101242.81;;;6.84;75.76
75585;BME280;64162;53.508;10.476;2023-02-02T09:13:06;101254.63;;;6.75;76.21
75585;BME280;64162;53.508;10.476;2023-02-02T09:15:33;101252.34;;;6.69;76.25
75585;BME280;64162;53.508;10.476;2023-02-02T09:17:59;101260.44;;;6.96;75.58
75585;BME280;64162;53.508;10.476;2023-02-02T09:20:26;101270.16;;;7.10;75.02
75585;BME280;64162;53.508;10.476;2023-02-02T09:22:54;101264.75;;;6.97;75.90
75585;BME280;64162;53.508;10.476;2023-02-02T09:25:23;101260.44;;;7.12;75.55
75585;BME280;64162;53.508;10.476;2023-02-02T09:27:50;101261.72;;;7.05;76.12
75585;BME280;64162;53.508;10.476;2023-02-02T09:30:17;101267.63;;;7.08;76.30
75585;BME280;64162;53.508;10.476;2023-02-02T09:32:47;101273.78;;;7.07;76.19
75585;BME280;64162;53.508;10.476;2023-02-02T09:35:14;101283.09;;;7.28;76.03
75585;BME280;64162;53.508;10.476;2023-02-02T09:37:40;101285.94;;;7.70;75.62
75585;BME280;64162;53.508;10.476;2023-02-02T09:40:13;101290.69;;;7.63;75.31
75585;BME280;64162;53.508;10.476;2023-02-02T09:42:50;101298.72;;;7.76;74.59
75585;BME280;64162;53.508;10.476;2023-02-02T09:45:35;101304.75;;;7.92;75.45
75585;BME280;64162;53.508;10.476;2023-02-02T09:50:47;101318.47;;;8.11;74.49
75585;BME280;64162;53.508;10.476;2023-02-02T09:56:26;101322.94;;;8.39;73.36
75585;BME280;64162;53.508;10.476;2023-02-02T09:58:58;101326.91;;;8.60;73.09
75585;BME280;64162;53.508;10.476;2023-02-02T10:01:40;101336.47;;;8.47;72.26
75585;BME280;64162;53.508;10.476;2023-02-02T10:04:24;101326.72;;;8.49;72.32
75585;BME280;64162;53.508;10.476;2023-02-02T10:06:57;101340.97;;;8.88;72.11
75585;BME280;64162;53.508;10.476;2023-02-02T10:09:42;101343.31;;;8.92;71.53
75585;BME280;64162;53.508;10.476;2023-02-02T10:12:37;101338.88;;;9.07;71.34
75585;BME280;64162;53.508;10.476;2023-02-02T10:18:00;101353.63;;;9.10;70.84
75585;BME280;64162;53.508;10.476;2023-02-02T10:20:47;101341.63;;;9.33;70.32
75585;BME280;64162;53.508;10.476;2023-02-02T10:23:28;101351.16;;;9.21;70.27
75585;BME280;64162;53.508;10.476;2023-02-02T10:28:41;101351.81;;;9.91;69.02
75585;BME280;64162;53.508;10.476;2023-02-02T10:31:16;101360.84;;;9.47;68.62
75585;BME280;64162;53.508;10.476;2023-02-02T10:34:16;101366.88;;;9.76;68.23
75585;BME280;64162;53.508;10.476;2023-02-02T10:37:12;101373.84;;;9.63;68.34
75585;BME280;64162;53.508;10.476;2023-02-02T10:46:12;101397.78;;;9.32;65.94
75585;BME280;64162;53.508;10.476;2023-02-02T10:48:43;101415.31;;;9.45;66.91
75585;BME280;64162;53.508;10.476;2023-02-02T10:51:22;101416.56;;;9.25;66.87
75585;BME280;64162;53.508;10.476;2023-02-02T10:53:52;101416.13;;;9.05;64.49
75585;BME280;64162;53.508;10.476;2023-02-02T10:56:36;101417.44;;;8.83;66.89
75585;BME280;64162;53.508;10.476;2023-02-02T10:59:10;101416.59;;;8.97;67.42
75585;BME280;64162;53.508;10.476;2023-02-02T11:01:39;101411.44;;;8.96;65.75
75585;BME280;64162;53.508;10.476;2023-02-02T11:04:08;101420.06;;;8.83;67.07
75585;BME280;64162;53.508;10.476;2023-02-02T11:06:57;101418.44;;;8.67;65.84
75585;BME280;64162;53.508;10.476;2023-02-02T11:09:30;101411.53;;;8.94;65.68
75585;BME280;64162;53.508;10.476;2023-02-02T11:12:05;101420.47;;;9.61;65.08
75585;BME280;64162;53.508;10.476;2023-02-02T11:14:41;101422.47;;;9.29;65.52
75585;BME280;64162;53.508;10.476;2023-02-02T11:17:20;101416.78;;;9.64;64.71
75585;BME280;64162;53.508;10.476;2023-02-02T11:19:47;101421.03;;;9.66;63.52
75585;BME280;64162;53.508;10.476;2023-02-02T11:24:54;101427.88;;;9.96;62.68
75585;BME280;64162;53.508;10.476;2023-02-02T11:27:23;101428.00;;;10.07;62.78
75585;BME280;64162;53.508;10.476;2023-02-02T11:29:53;101433.69;;;10.28;61.08
75585;BME280;64162;53.508;10.476;2023-02-02T11:32:32;101423.59;;;10.34;60.94
75585;BME280;64162;53.508;10.476;2023-02-02T11:37:38;101432.09;;;10.25;61.69
75585;BME280;64162;53.508;10.476;2023-02-02T11:40:28;101433.03;;;10.24;60.43
75585;BME280;64162;53.508;10.476;2023-02-02T11:42:56;101434.91;;;9.95;60.13
75585;BME280;64162;53.508;10.476;2023-02-02T11:45:45;101430.75;;;10.05;60.88
75585;BME280;64162;53.508;10.476;2023-02-02T11:48:20;101429.66;;;9.68;61.49
75585;BME280;64162;53.508;10.476;2023-02-02T11:50:53;101437.75;;;10.19;60.54
75585;BME280;64162;53.508;10.476;2023-02-02T11:53:23;101444.16;;;9.47;60.11
75585;BME280;64162;53.508;10.476;2023-02-02T11:55:52;101437.19;;;10.14;59.55
75585;BME280;64162;53.508;10.476;2023-02-02T11:58:25;101446.84;;;10.28;61.23
75585;BME280;64162;53.508;10.476;2023-02-02T12:03:33;101441.38;;;10.04;60.40
75585;BME280;64162;53.508;10.476;2023-02-02T12:09:01;101450.16;;;10.17;61.62
75585;BME280;64162;53.508;10.476;2023-02-02T12:17:35;101437.56;;;9.68;59.16
75585;BME280;64162;53.508;10.476;2023-02-02T12:20:40;101450.94;;;9.51;58.47
75585;BME280;64162;53.508;10.476;2023-02-02T12:23:27;101456.19;;;9.37;58.45
75585;BME280;64162;53.508;10.476;2023-02-02T12:26:18;101457.31;;;9.33;59.21
75585;BME280;64162;53.508;10.476;2023-02-02T12:28:59;101452.94;;;9.19;59.22
75585;BME280;64162;53.508;10.476;2023-02-02T12:37:33;101459.75;;;8.79;60.51
75585;BME280;64162;53.508;10.476;2023-02-02T12:40:28;101468.16;;;8.55;60.41
75585;BME280;64162;53.508;10.476;2023-02-02T12:43:14;101471.59;;;8.86;59.14
75585;BME280;64162;53.508;10.476;2023-02-02T12:46:00;101465.47;;;8.57;60.46
75585;BME280;64162;53.508;10.476;2023-02-02T12:51:20;101467.72;;;8.63;61.15
75585;BME280;64162;53.508;10.476;2023-02-02T12:54:14;101467.06;;;8.59;61.55
75585;BME280;64162;53.508;10.476;2023-02-02T12:57:19;101473.13;;;8.30;61.73
75585;BME280;64162;53.508;10.476;2023-02-02T13:00:22;101467.28;;;8.25;60.10
75585;BME280;64162;53.508;10.476;2023-02-02T13:08:41;101474.47;;;8.67;59.81
75585;BME280;64162;53.508;10.476;2023-02-02T13:11:16;101484.16;;;8.81;59.63
75585;BME280;64162;53.508;10.476;2023-02-02T13:14:04;101479.69;;;9.11;60.21
75585;BME280;64162;53.508;10.476;2023-02-02T13:16:41;101483.38;;;9.23;59.19
75585;BME280;64162;53.508;10.476;2023-02-02T13:19:14;101481.94;;;9.32;58.89
75585;BME280;64162;53.508;10.476;2023-02-02T13:21:48;101493.28;;;9.46;58.65
75585;BME280;64162;53.508;10.476;2023-02-02T13:24:21;101494.50;;;9.55;58.67
75585;BME280;64162;53.508;10.476;2023-02-02T13:26:50;101492.25;;;9.63;58.79
75585;BME280;64162;53.508;10.476;2023-02-02T13:29:36;101491.09;;;9.81;58.04
75585;BME280;64162;53.508;10.476;2023-02-02T13:32:29;101501.31;;;9.86;57.33
75585;BME280;64162;53.508;10.476;2023-02-02T13:35:12;101503.16;;;9.71;58.28
75585;BME280;64162;53.508;10.476;2023-02-02T13:38:01;101506.69;;;10.11;56.13
75585;BME280;64162;53.508;10.476;2023-02-02T13:40:40;101500.69;;;10.23;56.91
75585;BME280;64162;53.508;10.476;2023-02-02T13:44:10;101493.63;;;10.76;56.16
75585;BME280;64162;53.508;10.476;2023-02-02T13:49:03;101506.09;;;11.25;55.84
75585;BME280;64162;53.508;10.476;2023-02-02T14:00:14;101507.03;;;11.37;54.44
75585;BME280;64162;53.508;10.476;2023-02-02T14:02:46;101505.25;;;11.12;54.35
75585;BME280;64162;53.508;10.476;2023-02-02T14:05:32;101502.31;;;10.91;53.98
75585;BME280;64162;53.508;10.476;2023-02-02T14:10:37;101511.03;;;10.79;53.85
75585;BME280;64162;53.508;10.476;2023-02-02T14:15:59;101521.81;;;10.49;55.63
75585;BME280;64162;53.508;10.476;2023-02-02T14:26:51;101539.50;;;10.34;57.22
75585;BME280;64162;53.508;10.476;2023-02-02T14:32:00;101534.16;;;10.21;57.58
75585;BME280;64162;53.508;10.476;2023-02-02T14:34:38;101536.81;;;10.07;56.99
75585;BME280;64162;53.508;10.476;2023-02-02T14:49:07;101560.31;;;10.10;58.73
75585;BME280;64162;53.508;10.476;2023-02-02T14:51:47;101568.59;;;10.04;59.12
75585;BME280;64162;53.508;10.476;2023-02-02T14:54:19;101569.59;;;9.75;58.16
75585;BME280;64162;53.508;10.476;2023-02-02T14:56:52;101570.19;;;9.92;58.02
75585;BME280;64162;53.508;10.476;2023-02-02T14:59:41;101576.78;;;9.85;58.90
75585;BME280;64162;53.508;10.476;2023-02-02T15:04:37;101585.00;;;9.67;58.34
75585;BME280;64162;53.508;10.476;2023-02-02T15:09:53;101580.25;;;9.29;58.54
75585;BME280;64162;53.508;10.476;2023-02-02T15:12:33;101590.59;;;9.32;60.47